Hlavní strana
METAR-TAF:

METAR-TAF

Letiště :

Koror, Babeldaob, Palau

zeměpisná šířka: 07-22N, zeměpisná délka: 134-32E, výška: 54 m

Aktuální stav počasí

Zpráva byla vytvořena před 35 minutami, v 12:50 UTC
Jihozápadní vítr 9 kt s nárazy do 13 kt
Teplota 28°C
Vlhkost vzduchu 79%
Tlak 1009 hPa
Viditelnost: 24.1 km
Oblačno až skoro zataženo ve výšce 1600 ft
Oblačno až skoro zataženo ve výšce 30000 ft

METAR: PTRO 251250Z 23009G13KT 15SM BKN016 BKN300 28/24 A2980

Čas: 22:25 (13:25 UTC)

Předpověď počasí

Zpráva byla vytvořena před 2 hodinami a 5 minutami, v 11:20 UTC
Předpověď platná od 25 v 12 UTC do 26 v 12 UTC
Západojihozápadní vítr 12 kt
Viditelnost: 10 km
Polojasno ve výšce 1600 ft
Oblačno až skoro zataženo ve výšce 12000 ft
Oblačno až skoro zataženo ve výšce 30000 ft
přeháňky v blízkosti

TAF: PTRO 251120Z 2512/2612 24012KT P6SM VCSH SCT016 BKN120 BKN300

Stav a předpovědi počasí z více než 4 000 letišť (zprávy METAR a TAF).

Červené a žluté tečky na mapě představují dostupné meteorologické stanice.

Když kurzor umístíte na tečku, zobrazí se název stanice.

Pak kliknutím zobrazíte stav a předpověď počasí.

Chcete-li změnit mapu, kliknutím na zelené tlačítko se znaménkem +mapu přiblížíte, kliknutím na zelené tlačítko se znaménkem – mapu oddálíte a kliknutím na zelené šipky přejdete na sousední mapy.


METAR-TAF: